Time;durP1;ratioP1;P1;durP2;ratioP2;P2;SDS_P1;SDS_P2;PMS_P1;PMS_P2;Temp;Humidity;BMP_temperature;BMP_pressure;BME280_temperature;BME280_humidity;BME280_pressure;Samples;Min_cycle;Max_cycle;Signal;HPM_P1;HPM_P2
2023/03/30 00:02:22;;;;;;;8.55;2.40;;;13.50;99.90;;;;;;5054356;28;20028;-44
2023/03/30 00:04:51;;;;;;;6.10;2.58;;;13.70;99.90;;;;;;5054678;28;20027;-42
2023/03/30 00:07:17;;;;;;;6.45;2.67;;;13.80;99.90;;;;;;5042383;28;20035;-42
2023/03/30 00:09:45;;;;;;;7.95;3.03;;;13.80;99.90;;;;;;5034453;28;20096;-42
2023/03/30 00:12:12;;;;;;;9.93;3.42;;;13.80;99.90;;;;;;5034484;28;20045;-44
2023/03/30 00:14:40;;;;;;;6.13;2.63;;;13.80;99.90;;;;;;5034916;28;20101;-42
2023/03/30 00:17:06;;;;;;;6.57;2.60;;;13.80;99.90;;;;;;5016990;28;20033;-42
2023/03/30 00:19:32;;;;;;;5.45;2.05;;;13.80;99.90;;;;;;5034871;28;20536;-42
2023/03/30 00:21:58;;;;;;;8.23;3.75;;;13.90;99.90;;;;;;5035263;28;20075;-42
2023/03/30 00:24:23;;;;;;;7.00;2.47;;;13.90;99.90;;;;;;5034109;28;20374;-42
2023/03/30 00:26:50;;;;;;;5.57;2.53;;;13.90;99.90;;;;;;5034453;28;20523;-40
2023/03/30 00:29:15;;;;;;;5.60;2.70;;;13.90;99.90;;;;;;5033751;28;20017;-43
2023/03/30 00:31:41;;;;;;;6.15;2.80;;;13.90;99.90;;;;;;5033584;28;20117;-44
2023/03/30 00:34:07;;;;;;;10.13;3.22;;;13.80;99.90;;;;;;5016204;28;20409;-46
2023/03/30 00:36:36;;;;;;;7.10;2.47;;;13.80;99.90;;;;;;5034521;28;20527;-44
2023/03/30 00:39:05;;;;;;;7.07;3.13;;;13.90;99.90;;;;;;5033720;28;20456;-43
2023/03/30 00:41:31;;;;;;;5.95;2.70;;;13.90;99.90;;;;;;5015675;28;20101;-45
2023/03/30 00:44:27;;;;;;;10.35;2.75;;;13.80;99.90;;;;;;5034598;28;20071;-48
2023/03/30 00:46:53;;;;;;;14.90;2.95;;;13.80;99.90;;;;;;5024905;28;20390;-42
2023/03/30 00:49:20;;;;;;;9.77;2.28;;;13.80;99.90;;;;;;5033077;28;20078;-44
2023/03/30 00:51:49;;;;;;;9.52;2.72;;;13.80;99.90;;;;;;5033315;28;20025;-44
2023/03/30 00:54:17;;;;;;;5.97;2.63;;;13.80;99.90;;;;;;5033577;28;20095;-43
2023/03/30 00:56:43;;;;;;;11.32;2.60;;;13.80;99.90;;;;;;5033058;28;20040;-45
2023/03/30 00:59:09;;;;;;;9.40;2.80;;;13.80;99.90;;;;;;5033347;28;20017;-46
2023/03/30 01:01:42;;;;;;;9.75;3.42;;;13.80;99.90;;;;;;5015418;28;20026;-42
2023/03/30 01:04:08;;;;;;;6.82;2.50;;;13.70;99.90;;;;;;5033446;28;20025;-42
2023/03/30 01:06:38;;;;;;;10.20;3.90;;;13.70;99.90;;;;;;5032966;28;20485;-46
2023/03/30 01:09:05;;;;;;;12.10;3.30;;;13.70;99.90;;;;;;5033342;28;20080;-46
2023/03/30 01:11:31;;;;;;;19.73;3.83;;;13.70;99.90;;;;;;5033628;28;20029;-43
2023/03/30 01:14:02;;;;;;;12.25;2.83;;;13.70;99.90;;;;;;5015284;28;20037;-44
2023/03/30 01:16:48;;;;;;;5.70;2.60;;;13.70;99.90;;;;;;5033267;28;20021;-41
2023/03/30 01:19:51;;;;;;;14.75;2.70;;;13.70;99.90;;;;;;5033202;28;20457;-42
2023/03/30 01:22:37;;;;;;;7.68;2.75;;;13.80;99.90;;;;;;5033500;28;20049;-41
2023/03/30 01:25:21;;;;;;;12.88;3.35;;;13.80;99.90;;;;;;5033490;28;20029;-45
2023/03/30 01:28:20;;;;;;;17.95;3.58;;;13.80;99.90;;;;;;5033078;28;20018;-42
2023/03/30 01:31:00;;;;;;;13.73;2.78;;;13.80;99.90;;;;;;5032976;28;20025;-46
2023/03/30 01:34:07;;;;;;;12.43;2.42;;;13.70;99.90;;;;;;5015028;28;20032;-42
2023/03/30 01:36:35;;;;;;;6.05;2.97;;;13.70;99.90;;;;;;5032305;28;20057;-44
2023/03/30 01:39:28;;;;;;;13.70;2.95;;;13.70;99.90;;;;;;5032567;28;20052;-42
2023/03/30 01:42:18;;;;;;;9.02;3.22;;;13.60;99.90;;;;;;5032325;28;20026;-44
2023/03/30 01:45:02;;;;;;;7.38;2.65;;;13.50;99.90;;;;;;5032540;28;20027;-45
2023/03/30 01:47:35;;;;;;;8.63;2.75;;;13.50;99.90;;;;;;5032217;28;20020;-44
2023/03/30 01:50:12;;;;;;;4.05;2.55;;;13.50;99.90;;;;;;5014776;28;20033;-43
2023/03/30 01:53:21;;;;;;;5.88;2.63;;;13.40;99.90;;;;;;5032280;28;20017;-49
2023/03/30 01:56:00;;;;;;;14.57;3.22;;;13.30;99.90;;;;;;5019779;28;20038;-43
2023/03/30 01:58:47;;;;;;;12.93;3.75;;;13.30;99.90;;;;;;5032220;28;20021;-46
2023/03/30 02:01:16;;;;;;;9.02;3.00;;;13.30;99.90;;;;;;5031979;28;20021;-45
2023/03/30 02:03:45;;;;;;;10.88;3.38;;;13.40;99.90;;;;;;5032202;28;20021;-42
2023/03/30 02:06:23;;;;;;;6.60;2.85;;;13.40;99.90;;;;;;5032123;28;20048;-47
2023/03/30 02:08:50;;;;;;;7.35;3.10;;;13.40;99.90;;;;;;5032153;28;20021;-47
2023/03/30 02:11:16;;;;;;;6.68;2.45;;;13.40;99.90;;;;;;5031866;28;20025;-43
2023/03/30 02:13:43;;;;;;;8.88;3.00;;;13.30;99.90;;;;;;5031813;28;20121;-45
2023/03/30 02:16:20;;;;;;;5.68;3.25;;;13.30;99.90;;;;;;5031852;28;20367;-45
2023/03/30 02:18:45;;;;;;;13.77;2.67;;;13.30;99.90;;;;;;5031756;28;20029;-44
2023/03/30 02:21:11;;;;;;;9.48;2.90;;;13.40;99.90;;;;;;5031612;28;20040;-45
2023/03/30 02:23:41;;;;;;;5.32;3.00;;;13.40;99.90;;;;;;5031838;28;20036;-47
2023/03/30 02:26:07;;;;;;;8.25;3.10;;;13.30;99.90;;;;;;5031745;28;20022;-45
2023/03/30 02:28:33;;;;;;;9.57;3.20;;;13.30;99.90;;;;;;5031643;28;20107;-45
2023/03/30 02:30:59;;;;;;;11.07;3.00;;;13.30;99.90;;;;;;5031179;28;20122;-47
2023/03/30 02:33:50;;;;;;;6.13;3.08;;;13.20;99.90;;;;;;5031559;28;20485;-44
2023/03/30 02:36:36;;;;;;;4.50;2.25;;;13.20;99.90;;;;;;5031481;28;20037;-47
2023/03/30 02:39:13;;;;;;;7.22;2.65;;;13.20;99.90;;;;;;5031510;28;20021;-46
2023/03/30 02:41:55;;;;;;;5.93;2.50;;;13.20;99.90;;;;;;5031561;28;20032;-45
2023/03/30 02:44:34;;;;;;;8.30;3.00;;;13.20;99.90;;;;;;5013818;28;20029;-42
2023/03/30 02:47:24;;;;;;;8.05;3.05;;;13.20;99.90;;;;;;5031747;28;20029;-44
2023/03/30 02:49:59;;;;;;;10.95;2.95;;;13.30;99.90;;;;;;5031474;28;20100;-45
2023/03/30 02:52:49;;;;;;;8.20;3.43;;;13.20;99.90;;;;;;5031397;28;20454;-46
2023/03/30 02:55:33;;;;;;;7.47;2.92;;;13.20;99.90;;;;;;5031429;28;20524;-46
2023/03/30 02:58:02;;;;;;;12.05;4.57;;;13.20;99.90;;;;;;5031101;28;20390;-42
2023/03/30 03:00:40;;;;;;;7.75;2.47;;;13.30;99.90;;;;;;5031626;28;20436;-44
2023/03/30 03:03:26;;;;;;;11.48;2.83;;;13.20;99.90;;;;;;5031415;28;20100;-42
2023/03/30 03:05:53;;;;;;;8.68;3.33;;;13.20;99.90;;;;;;5032279;28;20105;-42
2023/03/30 03:08:22;;;;;;;10.25;3.00;;;13.20;99.90;;;;;;5014125;28;20037;-45
2023/03/30 03:10:49;;;;;;;13.65;4.03;;;13.20;99.90;;;;;;5031298;28;20118;-44
2023/03/30 03:13:16;;;;;;;13.50;3.38;;;13.20;99.90;;;;;;5034734;28;20029;-43
2023/03/30 03:15:44;;;;;;;9.32;3.55;;;13.20;99.90;;;;;;5035502;28;20041;-44
2023/03/30 03:18:10;;;;;;;10.23;3.83;;;13.30;99.90;;;;;;5035080;28;20393;-43
2023/03/30 03:20:35;;;;;;;10.05;3.67;;;13.30;99.90;;;;;;5035486;28;20500;-42
2023/03/30 03:23:01;;;;;;;6.18;2.78;;;13.20;99.90;;;;;;5035299;28;20101;-42
2023/03/30 03:25:26;;;;;;;5.28;2.95;;;13.30;99.90;;;;;;5035154;28;20032;-42
2023/03/30 03:27:52;;;;;;;8.65;2.83;;;13.20;99.90;;;;;;5034801;28;20109;-43
2023/03/30 03:30:18;;;;;;;5.65;3.17;;;13.20;99.90;;;;;;5017069;28;20025;-44
2023/03/30 03:32:43;;;;;;;12.27;3.42;;;13.20;99.90;;;;;;5035058;28;20033;-43
2023/03/30 03:35:09;;;;;;;18.02;3.42;;;13.20;99.90;;;;;;5034715;28;20397;-44
2023/03/30 03:37:35;;;;;;;14.05;2.70;;;13.20;99.90;;;;;;5035067;28;20048;-44
2023/03/30 03:40:00;;;;;;;12.65;3.42;;;13.20;99.90;;;;;;5017276;28;20030;-47
2023/03/30 03:42:26;;;;;;;8.40;3.15;;;13.10;99.90;;;;;;5034529;28;20025;-47
2023/03/30 03:44:51;;;;;;;7.72;3.60;;;13.10;99.90;;;;;;5035048;28;20033;-45
2023/03/30 03:47:17;;;;;;;12.95;3.55;;;13.10;99.90;;;;;;5034747;28;20021;-43
2023/03/30 03:49:42;;;;;;;11.20;3.58;;;13.20;99.90;;;;;;5034384;28;20031;-46
2023/03/30 03:52:09;;;;;;;9.88;3.95;;;13.20;99.90;;;;;;5034465;28;20109;-45
2023/03/30 03:54:35;;;;;;;12.38;3.08;;;13.20;99.90;;;;;;5034415;28;20022;-47
2023/03/30 03:57:00;;;;;;;9.02;3.00;;;13.40;99.90;;;;;;5034033;28;20044;-47
2023/03/30 03:59:26;;;;;;;14.07;2.95;;;13.50;99.90;;;;;;5034487;28;20022;-43
2023/03/30 04:01:52;;;;;;;9.02;3.17;;;13.60;99.90;;;;;;5034175;28;20100;-43
2023/03/30 04:04:17;;;;;;;6.32;3.00;;;13.60;99.90;;;;;;5034265;28;20065;-43
2023/03/30 04:06:43;;;;;;;18.08;2.85;;;13.60;99.90;;;;;;5034102;28;20030;-47
2023/03/30 04:09:09;;;;;;;13.38;4.05;;;13.60;99.90;;;;;;5034348;28;20025;-49
2023/03/30 04:11:35;;;;;;;25.35;5.07;;;13.50;99.90;;;;;;5034246;28;20105;-42
2023/03/30 04:14:00;;;;;;;6.78;3.00;;;13.50;99.90;;;;;;5034169;28;20496;-42
2023/03/30 04:16:27;;;;;;;12.13;3.20;;;13.40;99.90;;;;;;5033985;28;20026;-49
2023/03/30 04:18:52;;;;;;;21.83;3.22;;;13.50;99.90;;;;;;5016686;28;20049;-41
2023/03/30 04:21:19;;;;;;;19.38;4.25;;;13.50;99.90;;;;;;5033836;28;20045;-43
2023/03/30 04:23:47;;;;;;;18.00;3.60;;;13.50;99.90;;;;;;5015000;28;20433;-48
2023/03/30 04:26:14;;;;;;;11.48;4.07;;;13.50;99.90;;;;;;5034035;28;20427;-42
2023/03/30 04:28:40;;;;;;;14.27;3.95;;;13.50;99.90;;;;;;5033833;28;20030;-44
2023/03/30 04:31:09;;;;;;;14.05;2.80;;;13.60;99.90;;;;;;5015720;28;20029;-45
2023/03/30 04:33:37;;;;;;;6.85;2.95;;;13.60;99.90;;;;;;5016399;28;20593;-39
2023/03/30 04:36:03;;;;;;;11.77;3.80;;;13.60;99.90;;;;;;5033666;28;20025;-43
2023/03/30 04:38:29;;;;;;;8.48;3.53;;;13.60;99.90;;;;;;5033686;28;20025;-42
2023/03/30 04:40:55;;;;;;;8.50;3.15;;;13.70;99.90;;;;;;5033576;28;20037;-44
2023/03/30 04:43:22;;;;;;;7.88;3.13;;;13.70;99.90;;;;;;5033643;28;20032;-42
2023/03/30 04:45:50;;;;;;;7.32;2.90;;;13.70;99.90;;;;;;5033478;28;20024;-45
2023/03/30 04:48:16;;;;;;;15.82;3.90;;;13.70;99.90;;;;;;5033727;28;20018;-45
2023/03/30 04:50:43;;;;;;;7.72;3.13;;;13.80;99.90;;;;;;5033359;28;20026;-46
2023/03/30 04:53:09;;;;;;;10.55;3.40;;;13.70;99.90;;;;;;5033447;28;20411;-42
2023/03/30 04:55:35;;;;;;;14.80;3.60;;;13.70;99.90;;;;;;5033221;28;20075;-45
2023/03/30 04:58:01;;;;;;;17.08;3.72;;;13.60;99.90;;;;;;5033370;28;20497;-44
2023/03/30 05:00:26;;;;;;;10.77;3.60;;;13.40;99.90;;;;;;5033394;28;20040;-43
2023/03/30 05:02:52;;;;;;;11.13;3.83;;;13.10;99.90;;;;;;5033108;28;20013;-41
2023/03/30 05:05:18;;;;;;;15.25;4.28;;;13.00;99.90;;;;;;5033114;28;20055;-39
2023/03/30 05:07:43;;;;;;;20.35;4.90;;;12.80;99.90;;;;;;5033058;28;20416;-44
2023/03/30 05:10:09;;;;;;;18.58;4.07;;;12.70;99.90;;;;;;5033168;28;20043;-44
2023/03/30 05:12:35;;;;;;;17.27;3.92;;;12.60;99.90;;;;;;5032849;28;20021;-44
2023/03/30 05:15:00;;;;;;;15.70;3.97;;;12.50;99.90;;;;;;5032923;28;20490;-47
2023/03/30 05:17:26;;;;;;;16.67;3.45;;;12.50;99.90;;;;;;5033150;28;20096;-46
2023/03/30 05:19:52;;;;;;;18.52;3.70;;;12.50;99.90;;;;;;5033037;28;20029;-41
2023/03/30 05:22:17;;;;;;;12.25;4.25;;;12.50;99.90;;;;;;5014934;28;20028;-46
2023/03/30 05:24:43;;;;;;;11.80;3.90;;;12.50;99.90;;;;;;5032865;28;20033;-42
2023/03/30 05:27:08;;;;;;;13.65;5.03;;;12.50;99.90;;;;;;5032539;28;20045;-45
2023/03/30 05:29:34;;;;;;;10.10;3.90;;;12.50;99.90;;;;;;5032681;28;20033;-48
2023/03/30 05:31:59;;;;;;;22.63;4.55;;;12.50;99.90;;;;;;5032548;28;20021;-44
2023/03/30 05:34:25;;;;;;;13.55;4.80;;;12.50;99.90;;;;;;5032753;28;20040;-45
2023/03/30 05:36:51;;;;;;;18.20;5.10;;;12.60;99.90;;;;;;5032756;28;20025;-51
2023/03/30 05:39:17;;;;;;;14.10;4.28;;;12.50;99.90;;;;;;5014871;28;20493;-40
2023/03/30 05:41:42;;;;;;;17.80;4.30;;;12.60;99.90;;;;;;5033286;28;20025;-49
2023/03/30 05:44:08;;;;;;;15.02;3.92;;;12.60;99.90;;;;;;5014980;28;20563;-44
2023/03/30 05:46:33;;;;;;;13.35;4.32;;;12.70;99.90;;;;;;5014687;28;20056;-46
2023/03/30 05:48:59;;;;;;;19.92;5.22;;;12.70;99.90;;;;;;5032397;28;20063;-43
2023/03/30 05:51:24;;;;;;;14.02;3.42;;;12.70;99.90;;;;;;5032402;28;20092;-43
2023/03/30 05:53:50;;;;;;;13.38;4.40;;;12.70;99.90;;;;;;5032765;28;20091;-41
2023/03/30 05:58:45;;;;;;;15.52;4.03;;;12.60;99.90;;;;;;5008357;28;20042;-52
2023/03/30 06:01:12;;;;;;;16.10;5.53;;;12.50;99.90;;;;;;5012141;28;20025;-53
2023/03/30 06:03:38;;;;;;;18.02;5.50;;;12.40;99.90;;;;;;5012543;28;20105;-52
2023/03/30 06:06:04;;;;;;;18.80;4.82;;;12.40;99.90;;;;;;5012461;28;20022;-56
2023/03/30 06:08:30;;;;;;;17.70;4.13;;;12.40;99.90;;;;;;5012360;28;20026;-52
2023/03/30 06:10:56;;;;;;;16.30;4.53;;;12.40;99.90;;;;;;5012174;28;20025;-52
2023/03/30 06:13:22;;;;;;;15.82;4.20;;;12.50;99.90;;;;;;5012397;28;20100;-51
2023/03/30 06:15:48;;;;;;;17.55;5.00;;;12.40;99.90;;;;;;5012457;28;20030;-50
2023/03/30 06:18:14;;;;;;;19.35;4.70;;;12.50;99.90;;;;;;5012043;28;20060;-51
2023/03/30 06:20:39;;;;;;;24.33;5.05;;;12.60;99.90;;;;;;5012084;28;20045;-53
2023/03/30 06:23:05;;;;;;;14.13;4.50;;;12.60;99.90;;;;;;5012279;28;20033;-51
2023/03/30 06:25:31;;;;;;;17.17;5.32;;;12.60;99.90;;;;;;5012135;28;20026;-54
2023/03/30 06:27:56;;;;;;;18.08;4.80;;;12.60;99.90;;;;;;5012159;28;20069;-51
2023/03/30 06:30:22;;;;;;;17.65;4.75;;;12.60;99.90;;;;;;4994407;28;20129;-55
2023/03/30 06:32:48;;;;;;;10.82;4.03;;;12.70;99.90;;;;;;5011969;28;20116;-51
2023/03/30 06:35:14;;;;;;;8.85;5.22;;;12.70;99.90;;;;;;5011594;28;20026;-54
2023/03/30 06:37:41;;;;;;;14.30;3.83;;;12.70;99.90;;;;;;5011743;28;20095;-54
2023/03/30 06:40:12;;;;;;;9.40;2.80;;;12.70;99.90;;;;;;5011818;28;20032;-51
2023/03/30 06:42:38;;;;;;;14.05;3.83;;;12.80;99.90;;;;;;5011758;28;20474;-49
2023/03/30 06:45:04;;;;;;;9.63;3.17;;;12.90;99.90;;;;;;5011957;28;20069;-52
2023/03/30 06:47:30;;;;;;;14.75;3.08;;;12.90;99.90;;;;;;5010939;28;20018;-47
2023/03/30 06:49:55;;;;;;;15.95;4.35;;;12.90;99.90;;;;;;5012258;28;20026;-49
2023/03/30 06:52:21;;;;;;;8.80;3.25;;;12.90;99.90;;;;;;4993858;28;20030;-52
2023/03/30 06:54:46;;;;;;;19.75;4.38;;;12.90;99.90;;;;;;5011812;28;20022;-49
2023/03/30 06:57:12;;;;;;;9.80;3.67;;;12.90;99.90;;;;;;5011284;28;20034;-53
2023/03/30 06:59:37;;;;;;;13.07;4.45;;;12.90;99.90;;;;;;5012188;28;20076;-55
2023/03/30 07:02:03;;;;;;;11.38;4.65;;;12.90;99.90;;;;;;5012024;28;20502;-51
2023/03/30 07:04:29;;;;;;;15.70;4.10;;;12.90;99.90;;;;;;5011982;28;20452;-51
2023/03/30 07:06:56;;;;;;;8.70;3.20;;;12.80;99.90;;;;;;5011649;28;20490;-49
2023/03/30 07:09:23;;;;;;;8.60;3.13;;;12.80;99.90;;;;;;5011769;28;20440;-53
2023/03/30 07:11:49;;;;;;;17.33;4.18;;;12.90;99.90;;;;;;5011390;28;20113;-50
2023/03/30 07:14:14;;;;;;;8.98;3.05;;;12.90;99.90;;;;;;5011845;28;20101;-51
2023/03/30 07:16:40;;;;;;;12.82;3.97;;;12.90;99.90;;;;;;5011353;28;20034;-53
2023/03/30 07:19:05;;;;;;;9.30;3.05;;;12.90;99.90;;;;;;5011576;28;20088;-49
2023/03/30 07:21:31;;;;;;;13.57;3.38;;;12.90;99.90;;;;;;5011651;28;20064;-50
2023/03/30 07:24:00;;;;;;;8.85;3.28;;;12.90;99.90;;;;;;5012206;28;20052;-48
2023/03/30 07:26:26;;;;;;;8.15;3.05;;;12.90;99.90;;;;;;5012620;28;20030;-51
2023/03/30 07:28:52;;;;;;;5.82;2.80;;;12.90;99.90;;;;;;5013983;28;20022;-53
2023/03/30 07:31:18;;;;;;;5.35;2.60;;;12.90;99.90;;;;;;5011889;28;20041;-47
2023/03/30 07:33:44;;;;;;;14.95;3.55;;;12.90;99.90;;;;;;5013324;28;20030;-54
2023/03/30 07:36:10;;;;;;;7.18;3.28;;;13.00;99.90;;;;;;5011795;28;20394;-48
2023/03/30 07:38:35;;;;;;;5.13;2.90;;;13.00;99.90;;;;;;5011359;28;20022;-52
2023/03/30 07:41:06;;;;;;;10.88;3.65;;;13.00;99.90;;;;;;5011616;28;20022;-52
2023/03/30 07:43:31;;;;;;;7.60;3.03;;;13.10;99.90;;;;;;5011523;28;20025;-50
2023/03/30 07:45:57;;;;;;;15.82;5.07;;;13.00;99.90;;;;;;4993827;28;20018;-53
2023/03/30 07:48:22;;;;;;;5.85;3.00;;;13.00;99.90;;;;;;5009863;28;20030;-50
2023/03/30 07:50:49;;;;;;;7.68;3.17;;;13.00;99.90;;;;;;5010796;28;20042;-52
2023/03/30 07:53:15;;;;;;;8.98;3.10;;;13.10;99.90;;;;;;5011132;28;20026;-48
2023/03/30 07:55:41;;;;;;;4.85;2.67;;;13.10;99.90;;;;;;4993863;28;20022;-49
2023/03/30 07:58:06;;;;;;;15.57;3.33;;;13.10;99.90;;;;;;5012439;28;20041;-51
2023/03/30 08:00:32;;;;;;;10.88;4.22;;;13.10;99.90;;;;;;5014864;28;20101;-53
2023/03/30 08:02:58;;;;;;;7.22;3.00;;;13.10;99.90;;;;;;5013784;28;20032;-51
2023/03/30 08:05:23;;;;;;;8.10;3.88;;;13.10;99.90;;;;;;5013206;28;20030;-55
2023/03/30 08:07:49;;;;;;;7.43;3.92;;;13.10;99.90;;;;;;5013898;28;20509;-52
2023/03/30 08:10:15;;;;;;;6.90;3.40;;;13.20;99.90;;;;;;5014151;28;20026;-53
2023/03/30 08:12:40;;;;;;;8.02;3.25;;;13.20;99.90;;;;;;4996968;28;20022;-53
2023/03/30 08:15:07;;;;;;;10.15;4.15;;;13.20;99.90;;;;;;5012211;28;20036;-55
2023/03/30 08:17:32;;;;;;;7.05;3.08;;;13.20;99.90;;;;;;4996356;28;20079;-58
2023/03/30 08:19:58;;;;;;;8.07;3.65;;;13.30;99.90;;;;;;5014002;28;20017;-55
2023/03/30 08:22:23;;;;;;;7.85;4.35;;;13.30;99.90;;;;;;5013974;28;20021;-50
2023/03/30 08:24:49;;;;;;;9.00;3.55;;;13.40;99.90;;;;;;5014145;28;20029;-49
2023/03/30 08:27:14;;;;;;;8.43;3.90;;;13.40;99.90;;;;;;5013896;28;20026;-50
2023/03/30 08:29:40;;;;;;;7.70;3.60;;;13.40;99.90;;;;;;5013660;28;20382;-48
2023/03/30 08:32:06;;;;;;;5.95;3.25;;;13.40;99.90;;;;;;4995881;28;20029;-54
2023/03/30 08:34:32;;;;;;;8.68;3.55;;;13.40;99.90;;;;;;5014221;28;20050;-56
2023/03/30 08:36:58;;;;;;;8.55;4.45;;;13.50;99.90;;;;;;4996771;28;20439;-57
2023/03/30 08:39:24;;;;;;;4.90;3.05;;;13.50;99.90;;;;;;4976927;28;20113;-55
2023/03/30 08:41:56;;;;;;;6.53;3.78;;;13.60;99.90;;;;;;4996681;28;21649;-58
2023/03/30 08:44:41;;;;;;;8.30;3.90;;;13.60;99.90;;;;;;5013283;28;20018;-57
2023/03/30 08:47:20;;;;;;;5.45;3.30;;;13.70;99.90;;;;;;5013538;28;20497;-60
2023/03/30 08:49:58;;;;;;;6.60;3.35;;;13.70;99.90;;;;;;4996091;28;20041;-60
2023/03/30 08:52:25;;;;;;;5.15;2.70;;;13.80;99.90;;;;;;4993858;28;20036;-57
2023/03/30 08:54:51;;;;;;;7.22;3.40;;;13.90;99.90;;;;;;5010229;28;20030;-50
2023/03/30 08:57:48;;;;;;;7.40;2.85;;;13.90;99.90;;;;;;5012596;28;20034;-46
2023/03/30 09:00:31;;;;;;;8.38;3.00;;;13.90;99.90;;;;;;5012948;28;20022;-51
2023/03/30 09:03:28;;;;;;;8.70;2.60;;;13.90;99.90;;;;;;5012701;28;20029;-54
2023/03/30 09:06:07;;;;;;;6.53;3.35;;;13.90;99.90;;;;;;5004685;28;20417;-57
2023/03/30 09:08:33;;;;;;;9.07;2.85;;;13.90;99.90;;;;;;4999416;28;20027;-52
2023/03/30 09:11:00;;;;;;;10.43;3.15;;;13.90;99.90;;;;;;5023488;28;20034;-54
2023/03/30 09:13:35;;;;;;;8.07;3.35;;;13.80;99.90;;;;;;5032873;28;20044;-54
2023/03/30 09:16:19;;;;;;;4.32;3.13;;;14.00;99.90;;;;;;5032661;28;20513;-52
2023/03/30 09:18:49;;;;;;;6.57;2.50;;;14.20;99.90;;;;;;5032830;28;20026;-56
2023/03/30 09:21:17;;;;;;;7.65;2.45;;;14.30;99.90;;;;;;5014582;28;20551;-51
2023/03/30 09:23:43;;;;;;;6.78;2.75;;;14.50;99.90;;;;;;5013059;28;20021;-54
2023/03/30 09:26:21;;;;;;;10.82;3.47;;;14.60;99.90;;;;;;5013145;28;20033;-52
2023/03/30 09:28:55;;;;;;;5.50;2.72;;;14.60;99.90;;;;;;5013150;28;20022;-54
2023/03/30 09:31:40;;;;;;;8.10;2.58;;;14.60;99.90;;;;;;4995218;28;20411;-53
2023/03/30 09:34:16;;;;;;;6.13;3.25;;;14.50;99.90;;;;;;4995485;28;20038;-53
2023/03/30 09:36:53;;;;;;;6.18;2.83;;;14.50;99.90;;;;;;5012821;28;20029;-50
2023/03/30 09:39:30;;;;;;;8.18;2.50;;;14.50;99.90;;;;;;4995117;28;20025;-53
2023/03/30 09:42:07;;;;;;;3.15;2.10;;;14.50;99.90;;;;;;4994925;28;20109;-50
2023/03/30 09:44:44;;;;;;;4.82;2.35;;;14.50;99.90;;;;;;5012603;28;20030;-57
2023/03/30 09:47:30;;;;;;;6.82;2.63;;;14.50;99.90;;;;;;5012668;28;20064;-56
2023/03/30 09:50:03;;;;;;;6.72;2.60;;;14.50;99.90;;;;;;5012830;28;20030;-60
2023/03/30 09:52:37;;;;;;;6.30;2.22;;;14.50;99.90;;;;;;5012376;28;20057;-57
2023/03/30 09:55:28;;;;;;;6.63;3.58;;;14.40;99.90;;;;;;5012632;28;20029;-52
2023/03/30 09:58:13;;;;;;;14.52;6.60;;;14.40;99.90;;;;;;5005205;28;20042;-57
2023/03/30 10:00:40;;;;;;;6.32;3.97;;;14.50;99.90;;;;;;5012378;28;20548;-56
2023/03/30 10:03:06;;;;;;;4.57;2.25;;;14.50;99.90;;;;;;5012020;28;20493;-50
2023/03/30 10:05:34;;;;;;;5.65;2.72;;;14.50;99.90;;;;;;5012418;28;20030;-55
2023/03/30 10:08:04;;;;;;;8.43;2.60;;;14.50;99.90;;;;;;5012353;28;20022;-55
2023/03/30 10:10:38;;;;;;;5.70;2.50;;;14.60;99.90;;;;;;5012338;28;20037;-57
2023/03/30 10:13:12;;;;;;;5.00;2.27;;;14.70;99.90;;;;;;5012080;28;20022;-56
2023/03/30 10:15:42;;;;;;;5.00;2.65;;;14.80;99.90;;;;;;4992534;28;20574;-49
2023/03/30 10:18:26;;;;;;;10.57;3.28;;;14.90;99.90;;;;;;4992766;28;20042;-50
2023/03/30 10:20:59;;;;;;;10.88;2.17;;;15.00;99.90;;;;;;4996685;28;20029;-49
2023/03/30 10:23:32;;;;;;;4.85;1.83;;;15.10;99.90;;;;;;5009360;28;20117;-54
2023/03/30 10:26:02;;;;;;;9.77;2.65;;;15.20;99.90;;;;;;5009731;28;20032;-56
2023/03/30 10:28:30;;;;;;;7.60;2.40;;;15.30;99.90;;;;;;5011321;28;20521;-52
2023/03/30 10:30:59;;;;;;;4.40;2.20;;;15.40;99.90;;;;;;5010395;28;20033;-53
2023/03/30 10:33:27;;;;;;;5.85;2.42;;;15.50;99.90;;;;;;5011952;28;20057;-54
2023/03/30 10:35:55;;;;;;;4.50;2.22;;;15.50;99.90;;;;;;5011798;28;20025;-48
2023/03/30 10:38:23;;;;;;;4.30;2.15;;;15.60;99.90;;;;;;5005385;28;20056;-49
2023/03/30 10:40:57;;;;;;;5.93;2.38;;;15.70;99.90;;;;;;4991482;28;20030;-48
2023/03/30 10:43:29;;;;;;;7.40;2.22;;;16.00;99.90;;;;;;5009887;28;20049;-62
2023/03/30 10:45:57;;;;;;;7.82;2.60;;;16.10;99.90;;;;;;5006907;28;20017;-60
2023/03/30 10:48:40;;;;;;;3.42;2.38;;;16.20;99.90;;;;;;5010018;28;20382;-60
2023/03/30 10:51:24;;;;;;;13.45;2.47;;;16.20;99.90;;;;;;5008327;28;20030;-59
2023/03/30 10:54:04;;;;;;;3.60;2.00;;;16.20;99.90;;;;;;4993416;28;20517;-57
2023/03/30 10:56:46;;;;;;;5.93;2.50;;;16.20;99.90;;;;;;5006948;28;20022;-60
2023/03/30 10:59:40;;;;;;;4.45;2.20;;;16.10;99.90;;;;;;5009410;28;20045;-60
2023/03/30 11:02:20;;;;;;;4.80;2.63;;;16.00;99.90;;;;;;5005602;28;20030;-64
2023/03/30 11:05:09;;;;;;;6.80;2.00;;;15.90;99.90;;;;;;4991738;28;20014;-63
2023/03/30 11:07:42;;;;;;;8.50;3.08;;;16.00;99.90;;;;;;5008907;28;20486;-60
2023/03/30 11:10:28;;;;;;;3.50;2.35;;;16.00;99.90;;;;;;5009700;28;20048;-62
2023/03/30 11:13:01;;;;;;;8.38;2.38;;;16.20;99.90;;;;;;5005522;28;20026;-58
2023/03/30 11:15:40;;;;;;;14.35;2.47;;;16.20;99.90;;;;;;5009626;28;20092;-60
2023/03/30 11:18:31;;;;;;;6.70;2.63;;;16.20;99.90;;;;;;5008993;28;20026;-59
2023/03/30 11:21:23;;;;;;;10.35;4.03;;;16.10;99.90;;;;;;4993910;28;20497;-63
2023/03/30 11:24:12;;;;;;;5.13;2.17;;;16.00;99.90;;;;;;4981841;28;20030;-53
2023/03/30 11:26:48;;;;;;;10.63;2.30;;;15.90;99.90;;;;;;4991938;28;20398;-62
2023/03/30 11:30:07;;;;;;;7.25;3.28;;;15.80;99.90;;;;;;4991487;28;20732;-56
2023/03/30 11:32:52;;;;;;;5.32;2.40;;;15.90;99.90;;;;;;4927467;29;20115;-62
2023/03/30 11:35:40;;;;;;;5.05;2.05;;;16.00;99.90;;;;;;5013011;28;20042;-62
2023/03/30 11:38:28;;;;;;;5.35;2.20;;;16.20;99.90;;;;;;4995056;28;20022;-65
2023/03/30 11:41:13;;;;;;;9.13;2.72;;;16.40;99.90;;;;;;4993409;28;20029;-58
2023/03/30 11:43:40;;;;;;;5.20;2.15;;;16.50;99.90;;;;;;5013364;28;20145;-65
2023/03/30 11:46:09;;;;;;;6.22;2.05;;;16.70;99.90;;;;;;4995383;28;20034;-60
2023/03/30 11:48:52;;;;;;;4.93;2.30;;;16.90;99.90;;;;;;5012309;28;20021;-62
2023/03/30 11:51:24;;;;;;;5.90;1.70;;;17.00;99.90;;;;;;4992977;28;20109;-63
2023/03/30 11:54:16;;;;;;;5.93;1.73;;;17.00;99.90;;;;;;4995684;28;20022;-59
2023/03/30 11:59:29;;;;;;;3.38;1.65;;;17.10;99.90;;;;;;5007757;28;20054;-66
2023/03/30 12:02:11;;;;;;;;;;;17.30;99.90;;;;;;5008502;28;20092;-64
2023/03/30 12:04:53;;;;;;;5.60;1.52;;;17.40;99.90;;;;;;5011395;28;19906;-65
2023/03/30 12:07:43;;;;;;;4.45;1.70;;;17.60;99.90;;;;;;4994989;28;20497;-58
2023/03/30 12:10:40;;;;;;;9.07;1.45;;;17.60;99.90;;;;;;5012338;28;20112;-66
2023/03/30 12:13:11;;;;;;;4.88;1.60;;;17.50;99.90;;;;;;4976872;28;20072;-64
2023/03/30 12:15:57;;;;;;;6.57;1.60;;;17.70;99.90;;;;;;4993850;28;20421;-63
2023/03/30 12:18:42;;;;;;;4.05;1.70;;;17.60;99.90;;;;;;5011780;28;20088;-66
2023/03/30 12:21:34;;;;;;;5.28;1.75;;;17.60;99.90;;;;;;4991581;28;20026;-65
2023/03/30 12:24:12;;;;;;;5.80;1.33;;;17.60;99.90;;;;;;4994782;28;20030;-63
2023/03/30 12:26:38;;;;;;;3.75;1.58;;;17.60;99.90;;;;;;5011939;28;20083;-58
2023/03/30 12:29:04;;;;;;;6.53;1.92;;;17.60;99.90;;;;;;5012203;28;20022;-59
2023/03/30 12:31:50;;;;;;;6.70;1.48;;;17.60;99.90;;;;;;5009430;28;20056;-61
2023/03/30 12:34:16;;;;;;;;;;;17.60;99.90;;;;;;5012843;28;20056;-59
2023/03/30 12:36:53;;;;;;;4.13;1.85;;;17.50;99.90;;;;;;4994231;28;20380;-53
2023/03/30 12:39:25;;;;;;;5.32;1.67;;;17.50;99.90;;;;;;5011889;28;20055;-60
2023/03/30 12:42:04;;;;;;;4.05;1.23;;;17.40;99.90;;;;;;4992101;28;20506;-61
2023/03/30 12:44:42;;;;;;;5.32;1.20;;;17.50;99.90;;;;;;4994100;28;20071;-66
2023/03/30 12:47:55;;;;;;;3.03;0.90;;;17.50;99.90;;;;;;4994225;28;20501;-63
2023/03/30 12:50:45;;;;;;;5.85;1.30;;;17.60;99.80;;;;;;4931317;29;20527;-63
2023/03/30 12:53:43;;;;;;;6.65;1.73;;;17.50;99.70;;;;;;5007759;28;20026;-54
2023/03/30 12:56:25;;;;;;;6.63;1.45;;;17.50;99.90;;;;;;5011442;28;20022;-60
2023/03/30 12:59:21;;;;;;;4.82;1.40;;;17.60;99.90;;;;;;5012073;28;20065;-54
2023/03/30 13:02:23;;;;;;;6.38;1.60;;;17.50;99.90;;;;;;5008195;28;20030;-64
2023/03/30 13:04:49;;;;;;;2.72;1.20;;;17.30;99.90;;;;;;4994472;28;20398;-57
2023/03/30 13:07:21;;;;;;;6.53;1.23;;;17.00;99.90;;;;;;4993568;28;20065;-63
2023/03/30 13:10:10;;;;;;;8.18;2.30;;;16.60;99.90;;;;;;5010992;28;20026;-61
2023/03/30 13:12:39;;;;;;;5.45;1.90;;;15.90;99.90;;;;;;5007950;28;20097;-66
2023/03/30 13:15:20;;;;;;;5.28;1.88;;;15.20;99.90;;;;;;5007148;28;20113;-58